createdAt,value
2018-08-24T00:01:38.675Z,57.50
2018-08-24T00:04:07.750Z,57.50
2018-08-24T00:06:34.207Z,57.60
2018-08-24T00:09:01.588Z,57.50
2018-08-24T00:11:28.088Z,57.60
2018-08-24T00:13:54.563Z,57.60
2018-08-24T00:16:25.607Z,57.50
2018-08-24T00:18:52.313Z,57.50
2018-08-24T00:21:18.775Z,57.50
2018-08-24T00:23:45.231Z,57.50
2018-08-24T00:26:11.691Z,57.50
2018-08-24T00:28:38.161Z,57.50
2018-08-24T00:31:04.645Z,57.50
2018-08-24T00:33:31.253Z,57.60
2018-08-24T00:35:58.047Z,57.50
2018-08-24T00:38:24.475Z,57.60
2018-08-24T00:40:55.585Z,57.60
2018-08-24T00:43:22.062Z,57.50
2018-08-24T00:45:48.580Z,58.10
2018-08-24T00:48:15.061Z,57.60
2018-08-24T00:50:41.519Z,57.50
2018-08-24T00:53:07.947Z,57.50
2018-08-24T00:55:34.408Z,57.40
2018-08-24T00:58:00.843Z,57.50
2018-08-24T01:00:32.877Z,57.50
2018-08-24T01:02:59.344Z,57.50
2018-08-24T01:05:26.311Z,57.60
2018-08-24T01:07:58.422Z,57.50
2018-08-24T01:10:24.955Z,57.60
2018-08-24T01:12:51.391Z,57.40
2018-08-24T01:15:17.859Z,57.40
2018-08-24T01:17:50.053Z,57.50
2018-08-24T01:20:16.643Z,57.40
2018-08-24T01:22:43.105Z,57.50
2018-08-24T01:25:09.581Z,57.50
2018-08-24T01:27:36.073Z,57.40
2018-08-24T01:30:04.009Z,57.40
2018-08-24T01:32:30.510Z,57.40
2018-08-24T01:34:56.951Z,57.50
2018-08-24T01:37:23.399Z,57.30
2018-08-24T01:39:49.848Z,57.40
2018-08-24T01:42:16.337Z,57.40
2018-08-24T01:44:42.869Z,57.40
2018-08-24T01:47:09.307Z,57.40
2018-08-24T01:49:36.391Z,57.40
2018-08-24T01:52:02.869Z,57.40
2018-08-24T01:54:29.331Z,57.40
2018-08-24T01:56:55.804Z,57.40
2018-08-24T01:59:22.271Z,57.40
2018-08-24T02:01:48.740Z,57.40
2018-08-24T02:04:15.213Z,57.40
2018-08-24T02:06:41.708Z,57.30
2018-08-24T02:09:08.715Z,57.30
2018-08-24T02:11:35.181Z,57.30
2018-08-24T02:14:07.223Z,57.40
2018-08-24T02:16:35.350Z,57.40
2018-08-24T02:19:07.416Z,57.40
2018-08-24T02:21:39.576Z,57.40
2018-08-24T02:24:06.262Z,57.40
2018-08-24T02:26:32.726Z,57.30
2018-08-24T02:28:59.151Z,57.40
2018-08-24T02:31:25.606Z,57.40
2018-08-24T02:33:52.187Z,58.00
2018-08-24T02:36:18.683Z,57.50
2018-08-24T02:38:45.170Z,57.50
2018-08-24T02:41:11.630Z,57.40
2018-08-24T02:43:38.098Z,57.40
2018-08-24T02:46:04.569Z,57.50
2018-08-24T02:48:31.046Z,57.40
2018-08-24T02:50:57.548Z,57.50
2018-08-24T02:53:24.060Z,57.40
2018-08-24T02:55:50.555Z,57.40
2018-08-24T02:58:17.034Z,57.50
2018-08-24T03:00:43.520Z,57.40
2018-08-24T03:03:09.994Z,57.30
2018-08-24T03:05:36.523Z,57.30
2018-08-24T03:08:02.922Z,57.50
2018-08-24T03:10:29.388Z,57.40
2018-08-24T03:12:55.866Z,57.40
2018-08-24T03:15:22.362Z,57.40
2018-08-24T03:17:53.373Z,57.40
2018-08-24T03:20:19.833Z,57.40
2018-08-24T03:22:46.342Z,57.40
2018-08-24T03:25:12.790Z,57.40
2018-08-24T03:27:39.251Z,57.40
2018-08-24T03:30:06.340Z,57.40
2018-08-24T03:32:32.788Z,57.40
2018-08-24T03:34:59.706Z,57.40
2018-08-24T03:37:26.264Z,57.40
2018-08-24T03:39:52.707Z,57.40
2018-08-24T03:42:19.156Z,57.40
2018-08-24T03:44:45.766Z,57.50
2018-08-24T03:47:12.229Z,57.50
2018-08-24T03:49:38.708Z,57.40
2018-08-24T03:52:05.184Z,57.50
2018-08-24T03:54:31.639Z,57.60
2018-08-24T03:56:58.999Z,57.50
2018-08-24T03:59:25.882Z,57.50
2018-08-24T04:01:53.648Z,57.50
2018-08-24T04:04:20.120Z,57.50
2018-08-24T04:06:46.940Z,58.10
2018-08-24T04:09:25.821Z,57.60
2018-08-24T04:11:52.259Z,57.50
2018-08-24T04:14:18.737Z,57.60
2018-08-24T04:16:50.817Z,57.60
2018-08-24T04:19:23.848Z,57.60
2018-08-24T04:21:50.588Z,57.60
2018-08-24T04:24:17.056Z,57.60
2018-08-24T04:26:43.536Z,57.60
2018-08-24T04:29:12.453Z,57.60
2018-08-24T04:31:39.011Z,58.30
2018-08-24T04:34:05.863Z,57.60
2018-08-24T04:36:32.606Z,58.20
2018-08-24T04:38:59.073Z,57.70
2018-08-24T04:41:25.561Z,57.60
2018-08-24T04:43:52.013Z,57.70
2018-08-24T04:46:18.466Z,57.60
2018-08-24T04:48:44.923Z,57.60
2018-08-24T04:51:11.523Z,57.60
2018-08-24T04:53:37.994Z,57.60
2018-08-24T04:56:04.429Z,57.70
2018-08-24T04:58:30.905Z,57.70
2018-08-24T05:00:57.863Z,57.70
2018-08-24T05:03:24.346Z,57.60
2018-08-24T05:05:51.502Z,57.70
2018-08-24T05:08:17.951Z,57.70
2018-08-24T05:10:44.539Z,57.70
2018-08-24T05:13:11.008Z,57.80
2018-08-24T05:15:37.471Z,57.80
2018-08-24T05:18:03.933Z,57.80
2018-08-24T05:20:31.057Z,57.80
2018-08-24T05:22:57.495Z,57.80
2018-08-24T05:25:23.939Z,57.80
2018-08-24T05:27:50.937Z,57.80
2018-08-24T05:30:17.443Z,57.80
2018-08-24T05:32:43.932Z,57.80
2018-08-24T05:35:10.932Z,57.80
2018-08-24T05:37:37.376Z,57.80
2018-08-24T05:40:03.864Z,57.80
2018-08-24T05:42:30.385Z,57.80
2018-08-24T05:44:56.866Z,57.80
2018-08-24T05:47:23.885Z,57.80
2018-08-24T05:49:50.365Z,57.80
2018-08-24T05:52:16.833Z,57.80
2018-08-24T05:54:43.270Z,57.80
2018-08-24T05:57:09.737Z,57.80
2018-08-24T05:59:36.258Z,57.80
2018-08-24T06:02:02.781Z,57.80
2018-08-24T06:04:29.243Z,57.80
2018-08-24T06:06:56.690Z,57.80
2018-08-24T06:09:23.151Z,57.80
2018-08-24T06:11:49.634Z,57.80
2018-08-24T06:14:16.167Z,57.80
2018-08-24T06:16:51.087Z,57.80
2018-08-24T06:19:18.546Z,57.80
2018-08-24T06:21:45.102Z,57.80
2018-08-24T06:24:11.535Z,57.80
2018-08-24T06:26:37.988Z,57.90
2018-08-24T06:29:04.469Z,57.80
2018-08-24T06:31:30.993Z,57.80
2018-08-24T06:33:57.515Z,57.80
2018-08-24T06:36:24.013Z,57.80
2018-08-24T06:38:50.485Z,57.80
2018-08-24T06:41:16.951Z,57.80
2018-08-24T06:43:44.933Z,58.50
2018-08-24T06:46:11.427Z,57.90
2018-08-24T06:48:37.889Z,58.30
2018-08-24T06:51:04.361Z,58.50
2018-08-24T06:53:30.906Z,57.90
2018-08-24T06:55:57.331Z,57.90
2018-08-24T06:58:23.850Z,57.80
2018-08-24T07:00:50.349Z,57.90
2018-08-24T07:03:16.839Z,57.90
2018-08-24T07:05:43.918Z,57.90
2018-08-24T07:08:10.416Z,57.90
2018-08-24T07:10:36.966Z,57.90
2018-08-24T07:13:03.568Z,57.90
2018-08-24T07:15:30.026Z,57.90
2018-08-24T07:18:01.505Z,57.90
2018-08-24T07:20:28.066Z,57.90
2018-08-24T07:22:54.534Z,57.90
2018-08-24T07:25:21.000Z,57.90
2018-08-24T07:27:47.561Z,57.90
2018-08-24T07:30:14.011Z,57.90
2018-08-24T07:32:40.735Z,57.90
2018-08-24T07:35:07.175Z,57.90
2018-08-24T07:37:33.633Z,57.90
2018-08-24T07:40:00.081Z,58.50
2018-08-24T07:42:26.542Z,58.00
2018-08-24T07:44:54.051Z,57.90
2018-08-24T07:47:21.198Z,57.90
2018-08-24T07:49:47.660Z,58.00
2018-08-24T07:52:14.132Z,58.00
2018-08-24T07:54:40.591Z,58.00
2018-08-24T07:57:07.145Z,58.00
2018-08-24T07:59:33.554Z,58.00
2018-08-24T08:02:00.076Z,58.00
2018-08-24T08:04:26.533Z,58.00
2018-08-24T08:06:52.985Z,57.90
2018-08-24T08:09:19.442Z,58.00
2018-08-24T08:11:45.895Z,57.90
2018-08-24T08:14:13.967Z,57.90
2018-08-24T08:16:40.434Z,57.90
2018-08-24T08:19:07.021Z,57.90
2018-08-24T08:21:33.513Z,58.00
2018-08-24T08:24:00.037Z,57.90
2018-08-24T08:26:26.494Z,58.00
2018-08-24T08:28:53.110Z,57.90
2018-08-24T08:31:19.614Z,57.90
2018-08-24T08:33:46.079Z,58.00
2018-08-24T08:36:12.570Z,57.90
2018-08-24T08:38:39.019Z,58.00
2018-08-24T08:41:05.992Z,58.00
2018-08-24T08:43:32.490Z,58.00
2018-08-24T08:45:58.938Z,58.00
2018-08-24T08:48:25.419Z,57.90
2018-08-24T08:50:51.871Z,57.90
2018-08-24T08:53:18.404Z,57.90
2018-08-24T08:55:44.875Z,58.00
2018-08-24T08:58:11.477Z,57.90
2018-08-24T09:00:38.014Z,57.90
2018-08-24T09:03:05.438Z,57.90
2018-08-24T09:05:31.902Z,58.00
2018-08-24T09:07:58.376Z,58.00
2018-08-24T09:10:26.128Z,58.00
2018-08-24T09:12:52.718Z,58.00
2018-08-24T09:15:19.175Z,58.00
2018-08-24T09:17:51.230Z,57.90
2018-08-24T09:20:23.316Z,57.90
2018-08-24T09:22:55.372Z,58.00
2018-08-24T09:25:27.660Z,57.90
2018-08-24T09:27:59.738Z,57.90
2018-08-24T09:30:29.434Z,57.90
2018-08-24T09:32:55.951Z,57.80
2018-08-24T09:35:22.430Z,58.40
2018-08-24T09:37:48.919Z,57.80
2018-08-24T09:40:15.343Z,57.80
2018-08-24T09:42:41.821Z,57.90
2018-08-24T09:45:08.268Z,57.80
2018-08-24T09:47:40.531Z,57.80
2018-08-24T09:50:12.636Z,57.80
2018-08-24T09:52:39.104Z,57.80
2018-08-24T09:55:05.557Z,57.80
2018-08-24T09:57:32.035Z,57.90
2018-08-24T09:59:58.592Z,57.80
2018-08-24T10:02:29.616Z,57.80
2018-08-24T10:05:01.690Z,57.70
2018-08-24T10:07:32.468Z,57.80
2018-08-24T10:09:59.226Z,57.80
2018-08-24T10:12:25.772Z,57.80
2018-08-24T10:14:53.520Z,57.80
2018-08-24T10:17:24.956Z,57.80
2018-08-24T10:19:51.425Z,58.20
2018-08-24T10:22:17.918Z,57.80
2018-08-24T10:24:44.376Z,57.80
2018-08-24T10:27:10.860Z,57.80
2018-08-24T10:29:37.367Z,57.80
2018-08-24T10:32:03.856Z,57.80
2018-08-24T10:34:30.344Z,57.80
2018-08-24T10:36:56.929Z,57.80
2018-08-24T10:39:23.413Z,57.80
2018-08-24T10:41:49.887Z,57.80
2018-08-24T10:44:16.364Z,57.80
2018-08-24T10:46:42.869Z,57.80
2018-08-24T10:49:09.376Z,57.80
2018-08-24T10:51:35.869Z,57.80
2018-08-24T10:54:02.303Z,57.80
2018-08-24T10:56:28.786Z,57.80
2018-08-24T10:58:55.289Z,57.80
2018-08-24T11:01:21.769Z,58.10
2018-08-24T11:03:48.287Z,57.70
2018-08-24T11:06:14.730Z,57.70
2018-08-24T11:08:41.222Z,57.60
2018-08-24T11:11:07.726Z,58.30
2018-08-24T11:13:34.844Z,57.70
2018-08-24T11:16:01.281Z,57.70
2018-08-24T11:18:27.791Z,57.80
2018-08-24T11:20:54.291Z,57.70
2018-08-24T11:23:20.876Z,57.70
2018-08-24T11:25:47.434Z,57.70
2018-08-24T11:28:13.895Z,57.70
2018-08-24T11:30:40.383Z,57.60
2018-08-24T11:33:08.000Z,57.70
2018-08-24T11:35:35.077Z,57.60
2018-08-24T11:38:01.661Z,57.60
2018-08-24T11:40:28.739Z,57.60
2018-08-24T11:42:55.511Z,57.60
2018-08-24T11:45:21.977Z,57.50
2018-08-24T11:47:48.463Z,57.60
2018-08-24T11:50:14.929Z,57.60
2018-08-24T11:52:41.411Z,57.60
2018-08-24T11:55:07.898Z,58.20
2018-08-24T11:57:34.382Z,57.60
2018-08-24T12:00:00.827Z,57.60
2018-08-24T12:02:27.295Z,57.60
2018-08-24T12:04:53.787Z,57.50
2018-08-24T12:07:20.237Z,57.60
2018-08-24T12:09:46.708Z,57.60
2018-08-24T12:12:13.259Z,57.50
2018-08-24T12:14:39.681Z,57.50
2018-08-24T12:17:07.862Z,57.50
2018-08-24T12:19:34.348Z,57.50
2018-08-24T12:22:00.834Z,57.50
2018-08-24T12:24:27.320Z,57.50
2018-08-24T12:26:53.781Z,57.60
2018-08-24T12:29:20.632Z,57.50
2018-08-24T12:31:47.097Z,57.50
2018-08-24T12:34:13.569Z,57.50
2018-08-24T12:36:40.067Z,57.50
2018-08-24T12:39:07.198Z,57.50
2018-08-24T12:41:33.685Z,57.50
2018-08-24T12:44:00.152Z,57.50
2018-08-24T12:46:26.633Z,57.50
2018-08-24T12:48:53.676Z,57.50
2018-08-24T12:51:20.144Z,57.50
2018-08-24T12:53:46.620Z,57.50
2018-08-24T12:56:18.747Z,57.50
2018-08-24T12:58:45.226Z,57.50
2018-08-24T13:01:11.721Z,57.50
2018-08-24T13:03:38.275Z,57.50
2018-08-24T13:06:04.833Z,57.40
2018-08-24T13:08:31.395Z,57.40
2018-08-24T13:10:57.952Z,58.10
2018-08-24T13:13:24.426Z,57.70
2018-08-24T13:15:50.895Z,57.50
2018-08-24T13:18:17.455Z,57.40
2018-08-24T13:20:43.888Z,57.40
2018-08-24T13:23:10.338Z,57.50
2018-08-24T13:25:36.858Z,57.40
2018-08-24T13:28:03.312Z,57.40
2018-08-24T13:30:29.784Z,57.40
2018-08-24T13:32:56.268Z,57.40
2018-08-24T13:35:22.728Z,58.10
2018-08-24T13:37:49.204Z,57.40
2018-08-24T13:40:15.641Z,57.40
2018-08-24T13:42:42.116Z,57.40
2018-08-24T13:45:08.569Z,57.40
2018-08-24T13:47:35.124Z,57.40
2018-08-24T13:50:01.556Z,57.30
2018-08-24T13:52:28.062Z,57.40
2018-08-24T13:54:54.615Z,57.40
2018-08-24T13:57:21.059Z,57.40
2018-08-24T13:59:47.557Z,57.40
2018-08-24T14:02:15.162Z,57.30
2018-08-24T14:04:41.628Z,57.40
2018-08-24T14:07:08.087Z,57.40
2018-08-24T14:09:34.553Z,57.40
2018-08-24T14:12:01.028Z,57.40
2018-08-24T14:14:27.500Z,57.40
2018-08-24T14:16:53.955Z,57.40
2018-08-24T14:19:20.448Z,57.30
2018-08-24T14:21:46.882Z,57.30
2018-08-24T14:24:13.386Z,57.30
2018-08-24T14:26:39.929Z,57.40
2018-08-24T14:29:06.504Z,57.40
2018-08-24T14:31:33.069Z,57.40
2018-08-24T14:33:59.574Z,57.40
2018-08-24T14:36:26.053Z,57.40
2018-08-24T14:38:52.759Z,57.40
2018-08-24T14:41:19.261Z,57.40
2018-08-24T14:43:45.801Z,57.40
2018-08-24T14:46:12.264Z,57.40
2018-08-24T14:48:38.750Z,57.40
2018-08-24T14:51:05.225Z,57.40
2018-08-24T14:53:31.790Z,57.30
2018-08-24T14:55:58.247Z,57.30
2018-08-24T14:58:24.751Z,57.40
2018-08-24T15:00:51.211Z,57.40
2018-08-24T15:03:17.683Z,58.00
2018-08-24T15:05:44.219Z,57.40
2018-08-24T15:08:10.685Z,57.40
2018-08-24T15:10:37.175Z,57.30
2018-08-24T15:13:03.698Z,57.30
2018-08-24T15:15:30.171Z,57.30
2018-08-24T15:17:56.623Z,57.30
2018-08-24T15:20:23.087Z,57.40
2018-08-24T15:22:49.575Z,57.30
2018-08-24T15:25:16.060Z,57.30
2018-08-24T15:27:43.212Z,57.30
2018-08-24T15:30:10.215Z,57.30
2018-08-24T15:32:36.705Z,57.30
2018-08-24T15:35:03.185Z,57.30
2018-08-24T15:37:29.649Z,57.30
2018-08-24T15:39:56.074Z,57.30
2018-08-24T15:42:22.539Z,57.30
2018-08-24T15:44:48.974Z,57.30
2018-08-24T15:47:15.411Z,57.40
2018-08-24T15:49:41.893Z,57.70
2018-08-24T15:52:08.388Z,57.20
2018-08-24T15:54:34.921Z,57.20
2018-08-24T15:57:01.354Z,57.20
2018-08-24T15:59:27.858Z,57.20
2018-08-24T16:01:54.316Z,57.20
2018-08-24T16:04:21.010Z,57.00
2018-08-24T16:06:47.460Z,57.20
2018-08-24T16:09:13.970Z,57.20
2018-08-24T16:11:40.427Z,57.10
2018-08-24T16:14:06.932Z,57.20
2018-08-24T16:16:33.435Z,57.20
2018-08-24T16:18:59.887Z,57.10
2018-08-24T16:21:26.385Z,57.20
2018-08-24T16:23:52.941Z,57.20
2018-08-24T16:26:22.454Z,57.10
2018-08-24T16:28:48.931Z,57.20
2018-08-24T16:31:16.032Z,57.20
2018-08-24T16:33:42.614Z,57.10
2018-08-24T16:36:09.090Z,57.00
2018-08-24T16:38:35.544Z,57.00
2018-08-24T16:41:02.140Z,57.10
2018-08-24T16:43:28.758Z,57.00
2018-08-24T16:45:55.266Z,57.00
2018-08-24T16:48:21.733Z,57.10
2018-08-24T16:50:48.256Z,57.00
2018-08-24T16:53:14.756Z,57.00
2018-08-24T16:55:41.246Z,57.10
2018-08-24T16:58:07.863Z,57.00
2018-08-24T17:00:34.311Z,57.10
2018-08-24T17:03:00.800Z,57.00
2018-08-24T17:05:27.288Z,57.10
2018-08-24T17:07:53.776Z,57.00
2018-08-24T17:10:20.255Z,57.00
2018-08-24T17:12:46.773Z,57.00
2018-08-24T17:15:13.260Z,57.00
2018-08-24T17:17:39.758Z,57.00
2018-08-24T17:20:06.326Z,56.60
2018-08-24T17:22:32.804Z,56.90
2018-08-24T17:24:59.424Z,57.00
2018-08-24T17:27:25.873Z,57.00
2018-08-24T17:29:53.047Z,57.10
2018-08-24T17:32:19.668Z,56.90
2018-08-24T17:34:46.863Z,56.90
2018-08-24T17:37:13.357Z,56.90
2018-08-24T17:39:39.859Z,56.90
2018-08-24T17:42:06.322Z,56.90
2018-08-24T17:44:32.837Z,57.00
2018-08-24T17:46:59.793Z,56.90
2018-08-24T17:49:26.254Z,56.90
2018-08-24T17:51:52.722Z,56.90
2018-08-24T17:54:19.288Z,56.90
2018-08-24T17:56:45.731Z,57.30
2018-08-24T17:59:12.847Z,56.90
2018-08-24T18:01:39.320Z,56.90
2018-08-24T18:04:05.822Z,56.80
2018-08-24T18:06:32.322Z,56.90
2018-08-24T18:08:59.580Z,56.90
2018-08-24T18:11:26.333Z,56.90
2018-08-24T18:13:52.795Z,56.90
2018-08-24T18:16:19.259Z,56.90
2018-08-24T18:18:45.718Z,56.90
2018-08-24T18:21:12.191Z,56.90
2018-08-24T18:23:39.035Z,56.90
2018-08-24T18:26:05.611Z,56.90
2018-08-24T18:28:32.050Z,56.90
2018-08-24T18:30:58.605Z,56.90
2018-08-24T18:33:25.068Z,56.80
2018-08-24T18:35:51.599Z,56.80
2018-08-24T18:38:18.215Z,56.80
2018-08-24T18:40:44.713Z,56.80
2018-08-24T18:43:11.185Z,56.90
2018-08-24T18:45:37.745Z,56.80
2018-08-24T18:48:04.206Z,56.80
2018-08-24T18:50:30.665Z,56.80
2018-08-24T18:52:57.142Z,56.80
2018-08-24T18:55:24.200Z,56.80
2018-08-24T18:57:50.675Z,56.80
2018-08-24T19:00:17.446Z,56.80
2018-08-24T19:02:43.947Z,56.80
2018-08-24T19:05:10.430Z,57.40
2018-08-24T19:07:36.919Z,56.80
2018-08-24T19:10:03.398Z,56.80
2018-08-24T19:12:30.220Z,56.70
2018-08-24T19:14:57.690Z,56.70
2018-08-24T19:17:29.912Z,56.70
2018-08-24T19:20:04.112Z,56.70
2018-08-24T19:22:30.562Z,56.70
2018-08-24T19:24:57.026Z,56.70
2018-08-24T19:27:28.052Z,56.70
2018-08-24T19:30:00.187Z,56.70
2018-08-24T19:32:26.641Z,56.70
2018-08-24T19:34:53.131Z,56.70
2018-08-24T19:37:19.596Z,56.70
2018-08-24T19:39:51.662Z,56.70
2018-08-24T19:42:24.324Z,56.70
2018-08-24T19:44:50.796Z,56.70
2018-08-24T19:47:22.865Z,56.70
2018-08-24T19:49:49.347Z,56.70
2018-08-24T19:52:15.891Z,56.60
2018-08-24T19:54:42.482Z,56.90
2018-08-24T19:57:14.522Z,56.60
2018-08-24T19:59:40.998Z,56.60
2018-08-24T20:02:07.590Z,56.60
2018-08-24T20:04:34.114Z,56.60
2018-08-24T20:07:06.286Z,56.60
2018-08-24T20:09:38.362Z,56.60
2018-08-24T20:12:04.863Z,56.60
2018-08-24T20:14:37.105Z,56.60
2018-08-24T20:17:09.245Z,56.60
2018-08-24T20:19:35.830Z,56.60
2018-08-24T20:22:02.302Z,56.60
2018-08-24T20:24:28.927Z,56.60
2018-08-24T20:26:55.272Z,56.50
2018-08-24T20:29:21.717Z,56.50
2018-08-24T20:31:49.021Z,56.60
2018-08-24T20:34:16.125Z,56.50
2018-08-24T20:36:42.888Z,56.60
2018-08-24T20:39:16.990Z,56.50
2018-08-24T20:41:43.445Z,56.50
2018-08-24T20:44:09.917Z,56.50
2018-08-24T20:46:37.438Z,56.50
2018-08-24T20:49:04.235Z,56.50
2018-08-24T20:51:31.047Z,56.50
2018-08-24T20:53:57.508Z,56.40
2018-08-24T20:56:24.558Z,56.50
2018-08-24T20:58:51.098Z,56.50
2018-08-24T21:01:17.586Z,56.50
2018-08-24T21:03:44.196Z,56.50
2018-08-24T21:06:10.661Z,56.50
2018-08-24T21:08:37.166Z,56.50
2018-08-24T21:11:03.704Z,56.50
2018-08-24T21:13:30.204Z,56.50
2018-08-24T21:15:56.691Z,56.50
2018-08-24T21:18:23.172Z,56.50
2018-08-24T21:20:49.700Z,56.50
2018-08-24T21:23:16.170Z,56.50
2018-08-24T21:25:42.664Z,56.50
2018-08-24T21:28:09.684Z,56.50
2018-08-24T21:30:36.167Z,57.00
2018-08-24T21:33:02.640Z,56.50
2018-08-24T21:35:29.128Z,56.40
2018-08-24T21:37:55.600Z,56.40
2018-08-24T21:40:22.110Z,56.40
2018-08-24T21:42:48.584Z,56.50
2018-08-24T21:45:15.038Z,56.40
2018-08-24T21:47:41.475Z,56.40
2018-08-24T21:50:07.930Z,56.40
2018-08-24T21:52:34.410Z,56.40
2018-08-24T21:55:00.890Z,56.50
2018-08-24T21:57:27.461Z,57.00
2018-08-24T21:59:53.902Z,56.40
2018-08-24T22:02:20.372Z,56.40
2018-08-24T22:04:46.877Z,56.40
2018-08-24T22:07:13.339Z,56.40
2018-08-24T22:09:39.953Z,56.40
2018-08-24T22:12:07.118Z,56.30
2018-08-24T22:14:33.669Z,56.30
2018-08-24T22:17:00.140Z,56.40
2018-08-24T22:19:26.597Z,56.40
2018-08-24T22:21:53.117Z,56.30
2018-08-24T22:24:19.610Z,56.30
2018-08-24T22:26:46.093Z,56.30
2018-08-24T22:29:12.577Z,56.30
2018-08-24T22:31:39.036Z,56.30
2018-08-24T22:34:05.483Z,56.30
2018-08-24T22:36:31.952Z,56.30
2018-08-24T22:38:59.113Z,56.30
2018-08-24T22:41:26.013Z,56.30
2018-08-24T22:43:52.538Z,56.30
2018-08-24T22:46:19.023Z,56.30
2018-08-24T22:48:45.521Z,56.30
2018-08-24T22:51:12.010Z,56.30
2018-08-24T22:53:38.513Z,56.30
2018-08-24T22:56:04.988Z,56.30
2018-08-24T22:58:31.496Z,56.30
2018-08-24T23:00:57.939Z,56.30
2018-08-24T23:03:24.442Z,56.30
2018-08-24T23:05:50.934Z,56.20
2018-08-24T23:08:17.960Z,56.10
2018-08-24T23:10:44.412Z,56.30
2018-08-24T23:13:11.114Z,56.30
2018-08-24T23:15:37.587Z,56.30
2018-08-24T23:18:04.036Z,56.20
2018-08-24T23:20:30.518Z,56.20
2018-08-24T23:22:56.962Z,56.20
2018-08-24T23:25:23.772Z,56.20
2018-08-24T23:27:50.283Z,56.20
2018-08-24T23:30:16.848Z,56.30
2018-08-24T23:32:43.398Z,56.10
2018-08-24T23:35:09.986Z,56.20
2018-08-24T23:37:36.448Z,56.10
2018-08-24T23:40:02.938Z,56.20
2018-08-24T23:42:29.410Z,56.10
2018-08-24T23:44:55.869Z,56.20
2018-08-24T23:47:22.380Z,56.10
2018-08-24T23:49:49.128Z,56.10
2018-08-24T23:52:15.600Z,56.10
2018-08-24T23:54:42.129Z,56.10
2018-08-24T23:57:08.587Z,56.10
2018-08-24T23:59:35.080Z,56.10
